Time;durP1;ratioP1;P1;durP2;ratioP2;P2;SDS_P1;SDS_P2;PMS_P1;PMS_P2;Temp;Humidity;BMP_temperature;BMP_pressure;BME280_temperature;BME280_humidity;BME280_pressure;Samples;Min_cycle;Max_cycle;Signal;HPM_P1;HPM_P2
2023/03/18 00:01:18;;;;;;;29.45;22.52;;;;;;;;;;5028873;28;20067;-48
2023/03/18 00:03:46;;;;;;;28.52;22.00;;;4.80;99.90;;;;;;5028706;28;20029;-48
2023/03/18 00:06:15;;;;;;;27.70;22.92;;;4.90;99.90;;;;;;5031297;28;20049;-48
2023/03/18 00:08:42;;;;;;;31.67;25.73;;;4.90;99.90;;;;;;5028004;28;20105;-48
2023/03/18 00:11:10;;;;;;;34.28;24.98;;;4.90;99.90;;;;;;5029119;28;20029;-48
2023/03/18 00:13:36;;;;;;;33.22;24.45;;;5.00;99.90;;;;;;5024485;28;20064;-47
2023/03/18 00:16:03;;;;;;;34.00;23.92;;;5.10;99.90;;;;;;5031307;28;20484;-49
2023/03/18 00:18:31;;;;;;;33.85;24.02;;;5.00;99.90;;;;;;5031256;28;20037;-49
2023/03/18 00:20:59;;;;;;;30.92;20.88;;;4.80;99.90;;;;;;5021625;28;20104;-48
2023/03/18 00:23:26;;;;;;;31.05;20.80;;;4.40;99.90;;;;;;5026345;28;20061;-48
2023/03/18 00:25:55;;;;;;;29.52;20.25;;;4.40;99.90;;;;;;5022254;28;20032;-49
2023/03/18 00:28:21;;;;;;;30.17;20.73;;;4.30;99.90;;;;;;5026164;28;20109;-48
2023/03/18 00:30:48;;;;;;;32.45;21.85;;;4.10;99.90;;;;;;5027855;28;20076;-48
2023/03/18 00:33:15;;;;;;;30.70;22.23;;;4.00;99.90;;;;;;5025607;28;20033;-49
2023/03/18 00:35:41;;;;;;;30.90;21.83;;;4.10;99.90;;;;;;5025882;28;20021;-49
2023/03/18 00:38:08;;;;;;;31.15;21.90;;;4.20;99.90;;;;;;5029840;28;20038;-49
2023/03/18 00:40:52;;;;;;;32.97;22.23;;;4.30;99.90;;;;;;5023759;28;20107;-49
2023/03/18 00:43:28;;;;;;;30.50;22.65;;;4.40;99.90;;;;;;5020745;28;20040;-51
2023/03/18 00:45:57;;;;;;;34.03;20.70;;;4.60;99.90;;;;;;5029599;28;20079;-49
2023/03/18 00:48:24;;;;;;;30.55;21.80;;;4.50;99.90;;;;;;5030305;28;20091;-49
2023/03/18 00:50:50;;;;;;;31.02;20.33;;;4.70;99.90;;;;;;5022301;28;20510;-49
2023/03/18 00:53:17;;;;;;;32.58;21.70;;;4.90;99.90;;;;;;5030512;28;20104;-48
2023/03/18 00:55:43;;;;;;;28.77;20.33;;;5.10;99.90;;;;;;5022248;28;20022;-48
2023/03/18 00:58:10;;;;;;;31.65;20.48;;;;;;;;;;5029006;28;20052;-49
2023/03/18 01:00:37;;;;;;;28.55;19.50;;;;;;;;;;5026595;28;20038;-49
2023/03/18 01:03:05;;;;;;;27.27;20.15;;;;;;;;;;5028429;28;20033;-51
2023/03/18 01:05:32;;;;;;;28.20;18.35;;;;;;;;;;5026729;28;20033;-49
2023/03/18 01:07:58;;;;;;;27.23;19.17;;;;;;;;;;5032384;28;20534;-49
2023/03/18 01:10:26;;;;;;;33.00;20.02;;;;;;;;;;5047804;28;20053;-49
2023/03/18 01:12:52;;;;;;;27.95;18.63;;;;;;;;;;5032248;28;20033;-49
2023/03/18 01:15:20;;;;;;;27.95;18.42;;;5.30;99.90;;;;;;5024340;28;20044;-49
2023/03/18 01:17:47;;;;;;;23.27;17.83;;;5.20;99.90;;;;;;5032617;28;20057;-49
2023/03/18 01:20:15;;;;;;;26.90;18.85;;;5.00;99.90;;;;;;5026199;28;20042;-49
2023/03/18 01:22:41;;;;;;;29.60;18.73;;;5.00;99.90;;;;;;5032203;28;20045;-49
2023/03/18 01:25:09;;;;;;;27.48;19.60;;;5.00;99.90;;;;;;5048211;28;20462;-49
2023/03/18 01:27:35;;;;;;;28.15;18.98;;;4.70;99.90;;;;;;5028719;28;20028;-49
2023/03/18 01:30:02;;;;;;;29.73;18.50;;;4.50;99.90;;;;;;5048354;28;20393;-49
2023/03/18 01:32:28;;;;;;;32.65;19.80;;;4.50;99.90;;;;;;5034983;28;20029;-48
2023/03/18 01:34:53;;;;;;;24.25;17.48;;;4.60;99.90;;;;;;5016191;28;20032;-49
2023/03/18 01:37:20;;;;;;;27.85;18.15;;;4.50;99.90;;;;;;5033251;28;20029;-49
2023/03/18 01:39:46;;;;;;;30.20;20.25;;;4.50;99.90;;;;;;5029473;28;20030;-49
2023/03/18 01:42:13;;;;;;;27.63;19.65;;;4.40;99.90;;;;;;5031988;28;20564;-49
2023/03/18 01:44:39;;;;;;;32.22;21.25;;;4.60;99.90;;;;;;5035425;28;20112;-49
2023/03/18 01:47:05;;;;;;;31.95;21.25;;;4.60;99.90;;;;;;5029922;28;20530;-48
2023/03/18 01:49:47;;;;;;;35.60;23.05;;;4.80;99.90;;;;;;5012960;28;20124;-49
2023/03/18 01:52:17;;;;;;;39.10;22.50;;;4.80;99.90;;;;;;5026340;28;20025;-49
2023/03/18 01:54:53;;;;;;;36.72;24.13;;;4.80;99.90;;;;;;5029985;28;20484;-49
2023/03/18 01:57:21;;;;;;;42.25;24.05;;;4.70;99.90;;;;;;5024140;28;20025;-49
2023/03/18 01:59:49;;;;;;;39.85;25.27;;;4.60;99.90;;;;;;5030499;28;20032;-49
2023/03/18 02:02:15;;;;;;;41.60;25.88;;;4.70;99.90;;;;;;5029344;28;20022;-49
2023/03/18 02:04:48;;;;;;;37.38;25.80;;;4.70;99.90;;;;;;5030617;28;20500;-49
2023/03/18 02:07:26;;;;;;;37.33;23.98;;;4.60;99.90;;;;;;5022276;28;20044;-49
2023/03/18 02:09:54;;;;;;;43.90;26.33;;;4.50;99.90;;;;;;5032499;28;20116;-49
2023/03/18 02:12:50;;;;;;;43.10;26.08;;;4.50;99.90;;;;;;5032746;28;20026;-50
2023/03/18 02:15:21;;;;;;;41.53;26.02;;;4.30;99.90;;;;;;5028328;28;20092;-49
2023/03/18 02:17:54;;;;;;;40.55;24.60;;;4.30;99.90;;;;;;5033840;28;20029;-49
2023/03/18 02:20:44;;;;;;;41.25;24.98;;;4.20;99.90;;;;;;5035479;28;20097;-49
2023/03/18 02:23:51;;;;;;;41.10;25.55;;;4.20;99.90;;;;;;5034643;28;20079;-48
2023/03/18 02:26:25;;;;;;;46.28;27.75;;;4.10;99.90;;;;;;5034182;28;20033;-50
2023/03/18 02:28:56;;;;;;;43.53;27.25;;;4.10;99.90;;;;;;5033331;28;20564;-49
2023/03/18 02:31:22;;;;;;;37.20;23.75;;;4.10;99.90;;;;;;5032143;28;20064;-49
2023/03/18 02:33:49;;;;;;;40.40;26.10;;;4.20;99.90;;;;;;5031377;28;20048;-50
2023/03/18 02:36:22;;;;;;;41.80;24.88;;;4.40;99.90;;;;;;5030046;28;20030;-49
2023/03/18 02:38:48;;;;;;;41.13;26.05;;;4.60;99.90;;;;;;5028327;28;20041;-49
2023/03/18 02:41:20;;;;;;;48.28;27.83;;;4.80;99.90;;;;;;5031619;28;20017;-49
2023/03/18 02:43:47;;;;;;;38.80;25.45;;;4.80;99.90;;;;;;5012668;28;20026;-49
2023/03/18 02:46:30;;;;;;;42.67;26.73;;;4.80;99.90;;;;;;5031433;28;20040;-49
2023/03/18 02:48:59;;;;;;;44.58;28.15;;;4.70;99.90;;;;;;5031712;28;20017;-49
2023/03/18 02:51:26;;;;;;;43.45;26.77;;;4.20;99.90;;;;;;5015956;28;20026;-49
2023/03/18 02:53:56;;;;;;;41.78;28.25;;;3.90;99.90;;;;;;5029782;28;20028;-49
2023/03/18 02:56:22;;;;;;;42.88;23.33;;;4.10;99.90;;;;;;5023765;28;20080;-49
2023/03/18 02:58:48;;;;;;;44.10;26.98;;;3.70;99.90;;;;;;5027627;28;20120;-49
2023/03/18 03:01:14;;;;;;;38.53;24.70;;;3.50;99.90;;;;;;5030038;28;20557;-49
2023/03/18 03:03:40;;;;;;;37.20;24.42;;;3.50;99.90;;;;;;5031246;28;20029;-49
2023/03/18 03:06:07;;;;;;;41.53;24.52;;;3.60;99.90;;;;;;5030535;28;20025;-49
2023/03/18 03:08:33;;;;;;;38.63;24.55;;;3.70;99.90;;;;;;5028655;28;20036;-48
2023/03/18 03:10:59;;;;;;;38.35;24.98;;;4.00;99.90;;;;;;5031432;28;20100;-48
2023/03/18 03:13:26;;;;;;;39.97;26.15;;;3.80;99.90;;;;;;5027820;28;20112;-48
2023/03/18 03:15:53;;;;;;;39.15;25.48;;;3.70;99.90;;;;;;5026822;28;20108;-49
2023/03/18 03:18:19;;;;;;;39.97;24.98;;;3.70;99.90;;;;;;5031891;28;20026;-48
2023/03/18 03:20:45;;;;;;;36.08;25.30;;;3.90;99.90;;;;;;5021094;28;20112;-49
2023/03/18 03:23:13;;;;;;;38.08;26.13;;;3.90;99.90;;;;;;5022882;28;20494;-49
2023/03/18 03:25:39;;;;;;;37.85;24.85;;;3.90;99.90;;;;;;5046558;28;20033;-48
2023/03/18 03:28:06;;;;;;;38.65;26.08;;;3.90;99.90;;;;;;5026454;28;20466;-48
2023/03/18 03:30:32;;;;;;;43.70;26.25;;;4.10;99.90;;;;;;5029756;28;20109;-49
2023/03/18 03:32:58;;;;;;;37.47;25.58;;;3.90;99.90;;;;;;5029991;28;20029;-48
2023/03/18 03:35:25;;;;;;;39.92;25.00;;;3.90;99.90;;;;;;5025692;28;20712;-48
2023/03/18 03:37:53;;;;;;;46.90;27.00;;;4.20;99.90;;;;;;5023619;28;20527;-48
2023/03/18 03:40:20;;;;;;;53.55;28.52;;;4.40;99.90;;;;;;5027478;28;20029;-49
2023/03/18 03:42:47;;;;;;;33.47;21.35;;;4.40;99.90;;;;;;5025934;28;20022;-49
2023/03/18 03:45:15;;;;;;;30.63;19.98;;;3.70;99.90;;;;;;5026605;28;20520;-49
2023/03/18 03:47:41;;;;;;;32.65;20.80;;;3.50;99.90;;;;;;5033389;28;20060;-50
2023/03/18 03:50:09;;;;;;;39.78;23.60;;;3.50;99.90;;;;;;5025518;28;20385;-49
2023/03/18 03:52:36;;;;;;;39.25;24.02;;;3.50;99.90;;;;;;5021344;28;20037;-49
2023/03/18 03:55:02;;;;;;;30.70;19.92;;;3.50;99.90;;;;;;5030823;28;20033;-56
2023/03/18 03:57:28;;;;;;;35.92;21.50;;;3.50;99.90;;;;;;5025055;28;20033;-48
2023/03/18 03:59:55;;;;;;;28.30;18.40;;;3.50;99.90;;;;;;5032399;28;20017;-48
2023/03/18 04:02:22;;;;;;;33.83;20.48;;;3.50;99.90;;;;;;5030528;28;20029;-51
2023/03/18 04:04:49;;;;;;;27.25;16.92;;;3.60;99.90;;;;;;5029924;28;20033;-48
2023/03/18 04:07:15;;;;;;;27.08;18.15;;;3.40;99.90;;;;;;5023001;28;20063;-48
2023/03/18 04:09:41;;;;;;;25.80;17.42;;;3.20;99.90;;;;;;5025494;28;20450;-48
2023/03/18 04:12:08;;;;;;;30.20;17.45;;;3.40;99.90;;;;;;5026480;28;20067;-49
2023/03/18 04:14:34;;;;;;;25.35;16.92;;;3.30;99.90;;;;;;5024010;28;20378;-48
2023/03/18 04:16:59;;;;;;;24.50;17.40;;;3.00;99.90;;;;;;5025302;28;20025;-48
2023/03/18 04:19:27;;;;;;;25.98;17.08;;;3.20;99.90;;;;;;5023581;28;20084;-49
2023/03/18 04:21:53;;;;;;;25.80;16.90;;;3.30;99.90;;;;;;5029510;28;20052;-49
2023/03/18 04:24:20;;;;;;;26.25;15.88;;;3.60;99.90;;;;;;5029712;28;20022;-48
2023/03/18 04:26:47;;;;;;;25.58;16.23;;;3.40;99.90;;;;;;5027945;28;20037;-49
2023/03/18 04:29:13;;;;;;;24.30;16.20;;;3.40;99.90;;;;;;5024142;28;20397;-49
2023/03/18 04:31:39;;;;;;;29.45;17.25;;;3.20;99.90;;;;;;5025196;28;20022;-48
2023/03/18 04:34:04;;;;;;;23.15;15.93;;;3.20;99.90;;;;;;5045181;28;20471;-53
2023/03/18 04:36:30;;;;;;;22.02;14.20;;;3.50;99.90;;;;;;5048351;28;20037;-49
2023/03/18 04:38:56;;;;;;;107.60;37.95;;;3.60;99.90;;;;;;5028722;28;20022;-49
2023/03/18 04:41:22;;;;;;;54.17;24.83;;;3.70;99.90;;;;;;5032151;28;20021;-48
2023/03/18 04:43:48;;;;;;;46.72;30.70;;;4.00;99.90;;;;;;5029416;28;20028;-48
2023/03/18 04:46:14;;;;;;;28.67;19.52;;;3.90;99.90;;;;;;5025155;28;20032;-48
2023/03/18 04:48:41;;;;;;;23.35;16.55;;;3.50;99.90;;;;;;5035705;28;20025;-49
2023/03/18 04:51:11;;;;;;;21.65;14.38;;;3.10;99.90;;;;;;5028819;28;20084;-49
2023/03/18 04:53:37;;;;;;;24.13;15.45;;;3.00;99.90;;;;;;5023701;28;20033;-49
2023/03/18 04:56:04;;;;;;;23.75;15.10;;;2.90;99.90;;;;;;5032481;28;20029;-49
2023/03/18 04:58:30;;;;;;;24.95;15.80;;;3.00;99.90;;;;;;5025498;28;20049;-48
2023/03/18 05:00:56;;;;;;;23.85;16.52;;;3.00;99.90;;;;;;5029188;28;20026;-49
2023/03/18 05:03:22;;;;;;;21.67;14.80;;;2.90;99.90;;;;;;5029896;28;20018;-49
2023/03/18 05:05:48;;;;;;;23.77;15.20;;;2.90;99.90;;;;;;5033929;28;20033;-48
2023/03/18 05:08:15;;;;;;;25.02;15.20;;;;;;;;;;5027091;28;20065;-48
2023/03/18 05:10:41;;;;;;;29.67;17.15;;;;;;;;;;5029323;28;20022;-48
2023/03/18 05:13:09;;;;;;;24.25;15.75;;;;;;;;;;5030627;28;20420;-48
2023/03/18 05:15:35;;;;;;;22.25;13.25;;;;;;;;;;5034096;28;20022;-49
2023/03/18 05:18:03;;;;;;;20.05;13.93;;;;;;;;;;5026096;28;20060;-48
2023/03/18 05:20:29;;;;;;;18.10;12.75;;;;;;;;;;5030137;28;20022;-48
2023/03/18 05:22:56;;;;;;;23.80;13.90;;;;;;;;;;5050054;28;20147;-48
2023/03/18 05:25:22;;;;;;;24.85;15.43;;;;;;;;;;5030335;28;20080;-48
2023/03/18 05:27:48;;;;;;;25.23;15.50;;;;;;;;;;5030708;28;20022;-48
2023/03/18 05:30:14;;;;;;;23.73;15.55;;;;;;;;;;5025721;28;20112;-48
2023/03/18 05:32:41;;;;;;;19.25;13.60;;;;;;;;;;5020086;28;20100;-48
2023/03/18 05:35:09;;;;;;;21.38;14.27;;;;;;;;;;5032872;28;20017;-48
2023/03/18 05:37:35;;;;;;;19.95;14.48;;;;;;;;;;5024023;28;20466;-49
2023/03/18 05:40:03;;;;;;;20.25;13.20;;;;;;;;;;5033702;28;20075;-49
2023/03/18 05:42:29;;;;;;;20.90;12.88;;;;;;;;;;5027244;28;20025;-49
2023/03/18 05:44:55;;;;;;;20.05;13.70;;;4.80;99.90;;;;;;5029126;28;20030;-48
2023/03/18 05:47:21;;;;;;;23.17;14.73;;;4.60;99.90;;;;;;5028857;28;20105;-48
2023/03/18 05:49:47;;;;;;;22.50;14.90;;;4.60;99.90;;;;;;5030822;28;20105;-48
2023/03/18 05:52:16;;;;;;;22.52;14.70;;;;;;;;;;5026637;28;20041;-49
2023/03/18 05:54:42;;;;;;;30.40;19.00;;;5.10;99.90;;;;;;5021829;28;20053;-51
2023/03/18 05:57:08;;;;;;;49.72;26.63;;;;;;;;;;5033171;28;20029;-50
2023/03/18 05:59:35;;;;;;;73.72;36.75;;;;;;;;;;5028450;28;20092;-48
2023/03/18 06:02:01;;;;;;;50.15;27.65;;;5.40;99.90;;;;;;5029595;28;20026;-48
2023/03/18 06:04:27;;;;;;;46.17;26.95;;;5.40;99.90;;;;;;5036984;28;20047;-58
2023/03/18 06:06:54;;;;;;;45.17;27.50;;;;;;;;;;5051772;28;20040;-49
2023/03/18 06:09:21;;;;;;;36.80;22.92;;;5.70;99.90;;;;;;5028357;28;20100;-48
2023/03/18 06:11:46;;;;;;;34.00;21.48;;;5.70;99.90;;;;;;5028882;28;20061;-49
2023/03/18 06:14:13;;;;;;;24.73;16.98;;;5.70;99.90;;;;;;5034894;28;20064;-48
2023/03/18 06:16:39;;;;;;;24.83;16.52;;;5.70;99.90;;;;;;5028283;28;20049;-49
2023/03/18 06:19:05;;;;;;;31.17;20.85;;;5.70;99.90;;;;;;5031661;28;20503;-48
2023/03/18 06:21:31;;;;;;;39.22;25.95;;;5.80;99.90;;;;;;5021105;28;20116;-49
2023/03/18 06:23:57;;;;;;;42.38;28.33;;;6.00;99.90;;;;;;5029150;28;20127;-49
2023/03/18 06:26:23;;;;;;;35.28;24.50;;;6.00;99.90;;;;;;5029981;28;20030;-49
2023/03/18 06:28:49;;;;;;;34.20;23.30;;;6.10;99.90;;;;;;5029719;28;20018;-49
2023/03/18 06:31:16;;;;;;;34.03;23.80;;;6.30;99.90;;;;;;5026110;28;20048;-48
2023/03/18 06:33:42;;;;;;;26.67;19.75;;;;;;;;;;5023585;28;20025;-48
2023/03/18 06:36:09;;;;;;;29.55;20.17;;;;;;;;;;5030262;28;20032;-48
2023/03/18 06:38:35;;;;;;;31.38;21.42;;;;;;;;;;5029138;28;20040;-48
2023/03/18 06:41:02;;;;;;;34.42;23.10;;;;;;;;;;5031082;28;20116;-49
2023/03/18 06:43:27;;;;;;;36.75;24.00;;;6.10;99.90;;;;;;5030606;28;20039;-49
2023/03/18 06:45:53;;;;;;;38.20;25.70;;;;;;;;;;5031921;28;20033;-48
2023/03/18 06:48:20;;;;;;;37.42;24.75;;;;;;;;;;5029502;28;20060;-48
2023/03/18 06:50:46;;;;;;;41.75;27.70;;;;;;;;;;5027074;28;20477;-48
2023/03/18 06:53:13;;;;;;;39.95;25.65;;;6.90;99.90;;;;;;5033508;28;20031;-48
2023/03/18 06:55:38;;;;;;;38.00;25.02;;;7.10;99.90;;;;;;5031664;28;20029;-48
2023/03/18 06:58:05;;;;;;;37.25;24.73;;;7.60;99.90;;;;;;5046058;28;20029;-48
2023/03/18 07:00:32;;;;;;;38.60;24.88;;;7.70;99.90;;;;;;5044496;28;20068;-49
2023/03/18 07:02:59;;;;;;;35.55;23.42;;;8.30;99.90;;;;;;5045656;28;20041;-49
2023/03/18 07:05:25;;;;;;;33.20;23.70;;;8.20;99.90;;;;;;5026314;28;20124;-49
2023/03/18 07:07:51;;;;;;;34.70;22.00;;;8.00;99.90;;;;;;5030795;28;20161;-48
2023/03/18 07:10:19;;;;;;;39.08;24.17;;;;;;;;;;5027047;28;20129;-49
2023/03/18 07:12:46;;;;;;;33.20;22.25;;;9.30;99.90;;;;;;5022995;28;20474;-49
2023/03/18 07:15:13;;;;;;;33.33;23.08;;;;;;;;;;5026379;28;20033;-50
2023/03/18 07:17:39;;;;;;;36.97;24.90;;;;;;;;;;5025101;28;20069;-48
2023/03/18 07:20:06;;;;;;;35.67;24.58;;;11.20;99.90;;;;;;5045793;28;20060;-49
2023/03/18 07:22:32;;;;;;;39.30;27.58;;;11.40;99.90;;;;;;5028337;28;20049;-49
2023/03/18 07:24:57;;;;;;;37.75;23.63;;;11.00;99.90;;;;;;5020817;28;20049;-49
2023/03/18 07:27:23;;;;;;;37.35;25.23;;;11.30;99.90;;;;;;5024360;28;20060;-49
2023/03/18 07:29:49;;;;;;;29.30;21.20;;;11.60;99.90;;;;;;5040500;28;20033;-49
2023/03/18 07:32:15;;;;;;;118.05;41.17;;;11.50;99.90;;;;;;5025325;28;20029;-48
2023/03/18 07:34:41;;;;;;;54.55;24.25;;;11.80;99.90;;;;;;5026791;28;20482;-48
2023/03/18 07:37:07;;;;;;;24.13;15.70;;;11.70;99.90;;;;;;5025947;28;20323;-48
2023/03/18 07:39:33;;;;;;;26.95;19.35;;;11.00;99.90;;;;;;5023344;28;20029;-49
2023/03/18 07:41:59;;;;;;;25.88;18.70;;;10.90;99.90;;;;;;5027686;28;20025;-48
2023/03/18 07:44:25;;;;;;;25.40;18.42;;;11.30;99.90;;;;;;5029727;28;20025;-49
2023/03/18 07:46:51;;;;;;;24.33;17.08;;;11.50;99.90;;;;;;5019348;28;20488;-49
2023/03/18 07:49:16;;;;;;;25.38;18.50;;;11.40;99.90;;;;;;5021467;28;20065;-49
2023/03/18 07:51:43;;;;;;;24.20;18.40;;;;;;;;;;5028673;28;20026;-49
2023/03/18 07:54:09;;;;;;;24.20;17.83;;;;;;;;;;5040838;28;20105;-49
2023/03/18 07:56:35;;;;;;;23.40;17.27;;;13.70;99.90;;;;;;5028650;28;20021;-49
2023/03/18 07:59:01;;;;;;;25.00;17.55;;;14.00;99.90;;;;;;5030531;28;20405;-49
2023/03/18 08:01:27;;;;;;;23.52;17.98;;;;;;;;;;5045120;28;20033;-49
2023/03/18 08:03:54;;;;;;;25.30;16.90;;;;;;;;;;5028036;28;20021;-50
2023/03/18 08:06:19;;;;;;;22.67;15.95;;;14.50;99.90;;;;;;5031346;28;20393;-49
2023/03/18 08:08:45;;;;;;;26.58;17.90;;;14.70;99.60;;;;;;5031927;28;20021;-50
2023/03/18 08:11:11;;;;;;;27.00;16.70;;;13.90;99.90;;;;;;5026931;28;20056;-50
2023/03/18 08:13:38;;;;;;;29.80;16.35;;;14.40;99.50;;;;;;5027319;28;20057;-49
2023/03/18 08:16:04;;;;;;;24.10;16.13;;;13.90;98.70;;;;;;5030324;28;20037;-50
2023/03/18 08:18:30;;;;;;;23.13;14.80;;;14.50;99.10;;;;;;5031153;28;20049;-50
2023/03/18 08:20:56;;;;;;;19.70;13.55;;;;;;;;;;5023494;28;20045;-49
2023/03/18 08:23:22;;;;;;;18.33;13.90;;;;;;;;;;5020701;28;20068;-49
2023/03/18 08:25:49;;;;;;;17.58;13.02;;;15.60;99.90;;;;;;5025612;28;20415;-51
2023/03/18 08:28:15;;;;;;;13.27;10.00;;;16.00;96.90;;;;;;5023852;28;20045;-50
2023/03/18 08:30:42;;;;;;;12.20;9.32;;;15.70;95.30;;;;;;5046936;28;20171;-51
2023/03/18 08:33:08;;;;;;;13.50;9.70;;;15.10;94.80;;;;;;5026434;28;20032;-51
2023/03/18 08:35:34;;;;;;;13.15;9.93;;;14.90;95.40;;;;;;5026557;28;20072;-51
2023/03/18 08:38:00;;;;;;;12.02;8.95;;;14.30;95.90;;;;;;5044178;28;20046;-49
2023/03/18 08:40:26;;;;;;;15.50;11.23;;;14.70;95.00;;;;;;5029202;28;20171;-50
2023/03/18 08:42:52;;;;;;;15.85;10.85;;;15.60;94.70;;;;;;5026284;28;20017;-51
2023/03/18 08:45:19;;;;;;;14.70;11.07;;;;;;;;;;5026300;28;20026;-51
2023/03/18 08:47:44;;;;;;;16.23;11.82;;;16.20;93.20;;;;;;5025786;28;20033;-49
2023/03/18 08:50:12;;;;;;;18.08;13.20;;;16.10;93.60;;;;;;5032125;28;20027;-51
2023/03/18 08:52:40;;;;;;;16.23;11.15;;;;;;;;;;5024655;28;20121;-51
2023/03/18 08:55:08;;;;;;;12.48;8.75;;;17.20;99.00;;;;;;5022916;28;20450;-50
2023/03/18 08:57:34;;;;;;;13.52;10.07;;;16.00;95.30;;;;;;5036410;28;20541;-50
2023/03/18 09:00:00;;;;;;;13.88;10.23;;;;;;;;;;5029778;28;20121;-50
2023/03/18 09:02:26;;;;;;;9.85;7.53;;;17.50;99.90;;;;;;5028766;28;20038;-51
2023/03/18 09:04:53;;;;;;;12.88;11.05;;;;;;;;;;5028334;28;20030;-50
2023/03/18 09:07:19;;;;;;;14.57;11.43;;;17.50;94.00;;;;;;5030020;28;20033;-51
2023/03/18 09:09:45;;;;;;;15.50;10.90;;;17.40;92.00;;;;;;5023431;28;20034;-50
2023/03/18 09:12:12;;;;;;;17.25;12.20;;;;;;;;;;5028011;28;20465;-50
2023/03/18 09:14:39;;;;;;;15.93;11.70;;;18.80;92.50;;;;;;5026952;28;20057;-51
2023/03/18 09:17:05;;;;;;;14.65;11.90;;;;;;;;;;5027656;28;20038;-51
2023/03/18 09:19:31;;;;;;;14.85;10.88;;;20.20;92.70;;;;;;5009223;28;20068;-50
2023/03/18 09:21:58;;;;;;;13.88;10.18;;;20.20;89.40;;;;;;5024688;28;20485;-51
2023/03/18 09:24:24;;;;;;;14.73;11.70;;;;;;;;;;5024024;28;20534;-49
2023/03/18 09:26:49;;;;;;;13.68;9.65;;;20.30;99.90;;;;;;5028785;28;20033;-49
2023/03/18 09:29:15;;;;;;;14.82;11.27;;;18.10;89.30;;;;;;5029807;28;20338;-47
2023/03/18 09:31:41;;;;;;;11.70;8.93;;;19.60;95.90;;;;;;5025613;28;20037;-52
2023/03/18 09:34:08;;;;;;;15.27;10.93;;;;;;;;;;5022964;28;20033;-52
2023/03/18 09:36:35;;;;;;;14.82;11.48;;;;;;;;;;5025018;28;20045;-48
2023/03/18 09:39:01;;;;;;;12.10;9.63;;;;;;;;;;5029419;28;20487;-49
2023/03/18 09:42:02;;;;;;;11.40;9.00;;;20.80;97.40;;;;;;5028489;28;20087;-49
2023/03/18 09:44:34;;;;;;;12.30;9.38;;;19.20;85.80;;;;;;5031709;28;20042;-50
2023/03/18 09:47:19;;;;;;;15.05;10.55;;;19.80;86.70;;;;;;5034297;28;20109;-49
2023/03/18 09:50:09;;;;;;;12.55;8.45;;;20.90;86.90;;;;;;5025700;28;20069;-55
2023/03/18 09:52:55;;;;;;;12.27;8.82;;;19.20;84.80;;;;;;5033098;28;20083;-52
2023/03/18 09:55:48;;;;;;;11.90;8.48;;;18.50;85.60;;;;;;5021815;28;20420;-52
2023/03/18 09:58:27;;;;;;;10.88;8.35;;;18.70;85.60;;;;;;5029303;28;20566;-52
2023/03/18 10:00:59;;;;;;;10.80;8.82;;;18.60;84.90;;;;;;5032654;28;20026;-53
2023/03/18 10:03:34;;;;;;;11.95;8.35;;;18.40;86.70;;;;;;5032763;28;20091;-53
2023/03/18 10:06:18;;;;;;;13.02;10.63;;;19.00;93.30;;;;;;5031903;28;20116;-50
2023/03/18 10:09:02;;;;;;;10.48;8.25;;;20.00;85.40;;;;;;5032478;28;20033;-52
2023/03/18 10:11:41;;;;;;;9.43;6.68;;;19.60;85.60;;;;;;5032429;28;20037;-52
2023/03/18 10:14:17;;;;;;;10.38;7.60;;;;;;;;;;5032218;28;20025;-49
2023/03/18 10:16:50;;;;;;;11.77;7.22;;;20.10;99.90;;;;;;5029518;28;20034;-50
2023/03/18 10:19:16;;;;;;;5.55;4.15;;;19.60;99.60;;;;;;5032778;28;20521;-55
2023/03/18 10:21:53;;;;;;;12.70;8.43;;;18.20;83.00;;;;;;5032326;28;20057;-56
2023/03/18 10:25:00;;;;;;;9.65;7.70;;;19.00;84.00;;;;;;5032220;28;20129;-50
2023/03/18 10:27:44;;;;;;;10.45;7.65;;;19.70;83.00;;;;;;4979250;28;20035;-53
2023/03/18 10:30:29;;;;;;;10.35;8.10;;;;;;;;;;4969370;28;20026;-51
2023/03/18 10:33:13;;;;;;;11.95;8.48;;;20.20;84.50;;;;;;4973637;28;20137;-53
2023/03/18 10:35:47;;;;;;;11.15;7.50;;;19.90;82.30;;;;;;4973404;28;20479;-53
2023/03/18 10:38:21;;;;;;;12.40;7.72;;;19.80;81.40;;;;;;4988823;28;20047;-49
2023/03/18 10:40:48;;;;;;;8.57;6.68;;;20.20;81.70;;;;;;4973093;28;20054;-52
2023/03/18 10:43:24;;;;;;;11.68;8.65;;;18.80;82.80;;;;;;4989074;28;20090;-53
2023/03/18 10:46:04;;;;;;;11.88;8.23;;;19.60;84.40;;;;;;4954082;29;20038;-51
2023/03/18 10:48:35;;;;;;;12.95;8.90;;;20.30;82.40;;;;;;4953709;29;20431;-53
2023/03/18 10:51:18;;;;;;;11.63;9.05;;;21.00;81.60;;;;;;4953612;29;20561;-55
2023/03/18 10:53:52;;;;;;;15.25;10.05;;;20.20;81.80;;;;;;4953613;28;20384;-55
2023/03/18 10:56:18;;;;;;;11.73;9.02;;;19.40;82.50;;;;;;4953975;29;20515;-52
2023/03/18 10:58:45;;;;;;;14.93;10.30;;;20.00;83.40;;;;;;4953452;29;20039;-50
2023/03/18 11:01:15;;;;;;;16.10;11.25;;;20.20;83.20;;;;;;4953378;28;20027;-55
2023/03/18 11:04:00;;;;;;;12.30;8.90;;;20.50;84.50;;;;;;4993283;28;20061;-51
2023/03/18 11:06:45;;;;;;;11.10;7.88;;;20.70;82.70;;;;;;5031889;28;20141;-52
2023/03/18 11:09:15;;;;;;;11.73;8.75;;;20.20;82.90;;;;;;5017145;28;20025;-53
2023/03/18 11:11:43;;;;;;;10.32;6.45;;;;;;;;;;5021287;28;20036;-53
2023/03/18 11:14:19;;;;;;;10.25;7.50;;;20.70;99.90;;;;;;4998727;28;20036;-51
2023/03/18 11:16:57;;;;;;;9.70;7.40;;;21.10;80.10;;;;;;5025481;28;20057;-53
2023/03/18 11:19:28;;;;;;;7.70;5.53;;;;;;;;;;5025040;28;20088;-54
2023/03/18 11:22:03;;;;;;;7.82;5.85;;;;;;;;;;5025660;28;20041;-53
2023/03/18 11:24:41;;;;;;;6.97;5.35;;;21.40;99.40;;;;;;5024891;28;20081;-54
2023/03/18 11:27:14;;;;;;;8.05;5.68;;;;;;;;;;5030937;28;20028;-55
2023/03/18 11:29:49;;;;;;;10.68;5.15;;;21.60;78.10;;;;;;5029618;28;20060;-53
2023/03/18 11:32:30;;;;;;;7.40;4.75;;;21.30;78.90;;;;;;5030304;28;20029;-50
2023/03/18 11:35:01;;;;;;;4.68;3.70;;;21.60;78.20;;;;;;5025872;28;20026;-51
2023/03/18 11:37:39;;;;;;;6.45;3.90;;;21.00;77.80;;;;;;5022691;28;20033;-51
2023/03/18 11:40:18;;;;;;;5.30;3.83;;;20.10;78.60;;;;;;5029752;28;20418;-51
2023/03/18 11:42:46;;;;;;;6.95;4.90;;;21.00;79.30;;;;;;5022151;28;20036;-52
2023/03/18 11:45:31;;;;;;;7.38;6.43;;;21.00;80.90;;;;;;5030193;28;20029;-53
2023/03/18 11:47:57;;;;;;;6.40;4.43;;;20.90;79.00;;;;;;5029180;28;20025;-51
2023/03/18 11:50:29;;;;;;;9.18;4.95;;;20.90;79.70;;;;;;5025969;28;20153;-51
2023/03/18 11:53:24;;;;;;;9.73;6.40;;;20.70;79.10;;;;;;5026544;28;20026;-50
2023/03/18 11:55:55;;;;;;;5.88;4.47;;;21.00;80.60;;;;;;5030399;28;20436;-53
2023/03/18 11:59:03;;;;;;;13.27;8.30;;;21.10;78.70;;;;;;5030176;28;20044;-54
2023/03/18 12:01:48;;;;;;;8.65;3.63;;;;;;;;;;5030315;28;20401;-53
2023/03/18 12:04:32;;;;;;;12.10;7.07;;;19.40;87.90;;;;;;5010804;28;20109;-50
2023/03/18 12:07:04;;;;;;;9.02;6.55;;;20.00;90.80;;;;;;5030449;28;20037;-53
2023/03/18 12:09:40;;;;;;;9.40;4.70;;;20.80;77.50;;;;;;5030536;28;20025;-54
2023/03/18 12:12:25;;;;;;;7.55;4.53;;;20.40;77.30;;;;;;5030315;28;20092;-51
2023/03/18 12:15:08;;;;;;;12.43;6.97;;;20.30;79.00;;;;;;5031150;28;20049;-51
2023/03/18 12:18:15;;;;;;;44.05;24.55;;;19.70;77.50;;;;;;5030439;28;20472;-54
2023/03/18 12:20:52;;;;;;;7.50;5.20;;;19.60;78.90;;;;;;5030887;28;20073;-54
2023/03/18 12:23:52;;;;;;;5.70;3.92;;;19.40;78.70;;;;;;5026980;28;20129;-53
2023/03/18 12:26:39;;;;;;;10.48;4.25;;;19.60;78.90;;;;;;4952215;28;20035;-54
2023/03/18 12:29:54;;;;;;;7.05;4.68;;;19.90;78.00;;;;;;4951937;29;20067;-51
2023/03/18 12:32:40;;;;;;;6.05;4.57;;;20.20;79.10;;;;;;4899706;29;20111;-52
2023/03/18 12:35:23;;;;;;;7.25;4.70;;;20.30;79.30;;;;;;4913141;29;20035;-50
2023/03/18 12:38:07;;;;;;;11.75;5.47;;;20.60;79.40;;;;;;4912460;29;20036;-52
2023/03/18 12:40:36;;;;;;;6.43;4.88;;;20.30;78.80;;;;;;4913305;29;20041;-51
2023/03/18 12:43:13;;;;;;;8.05;4.93;;;20.20;79.20;;;;;;4913730;29;20115;-53
2023/03/18 12:45:43;;;;;;;10.00;6.07;;;20.40;80.00;;;;;;4912289;29;20051;-52
2023/03/18 12:48:11;;;;;;;8.20;4.40;;;19.90;79.10;;;;;;4914117;29;20110;-53
2023/03/18 12:50:46;;;;;;;6.93;5.13;;;20.10;79.20;;;;;;4913725;29;20062;-51
2023/03/18 12:53:27;;;;;;;8.18;4.65;;;19.80;79.00;;;;;;4913987;29;20051;-52
2023/03/18 12:56:01;;;;;;;7.28;5.15;;;20.40;79.70;;;;;;4911154;29;20040;-54
2023/03/18 12:58:34;;;;;;;8.40;5.38;;;20.20;81.10;;;;;;4929564;29;20048;-54
2023/03/18 13:01:16;;;;;;;11.55;5.55;;;20.40;79.40;;;;;;4898462;29;20440;-52
2023/03/18 13:03:46;;;;;;;5.95;4.53;;;20.40;78.20;;;;;;4948312;29;20404;-53
2023/03/18 13:06:29;;;;;;;7.55;5.95;;;20.30;79.00;;;;;;4997981;28;20039;-53
2023/03/18 13:09:23;;;;;;;7.82;5.10;;;20.40;79.80;;;;;;5030478;28;20071;-51
2023/03/18 13:12:33;;;;;;;7.57;5.60;;;20.90;80.50;;;;;;5023672;28;20120;-53